sensor_id;sensor_type;location;lat;lon;timestamp;P1;durP1;ratioP1;P2;durP2;ratioP2
16326;SDS011;34812;49.846;9.610;2023-04-24T00:00:37;3.03;;;2.73;;
16326;SDS011;34812;49.846;9.610;2023-04-24T00:01:40;4.93;;;3.10;;
16326;SDS011;34812;49.846;9.610;2023-04-24T00:02:43;3.53;;;2.60;;
16326;SDS011;34812;49.846;9.610;2023-04-24T00:03:47;3.30;;;3.10;;
16326;SDS011;34812;49.846;9.610;2023-04-24T00:04:47;4.17;;;3.60;;
16326;SDS011;34812;49.846;9.610;2023-04-24T00:05:49;3.67;;;2.77;;
16326;SDS011;34812;49.846;9.610;2023-04-24T00:06:52;3.67;;;3.20;;
16326;SDS011;34812;49.846;9.610;2023-04-24T00:07:57;4.50;;;3.10;;
16326;SDS011;34812;49.846;9.610;2023-04-24T00:08:57;3.13;;;2.90;;
16326;SDS011;34812;49.846;9.610;2023-04-24T00:09:59;4.53;;;2.90;;
16326;SDS011;34812;49.846;9.610;2023-04-24T00:11:00;3.83;;;2.80;;
16326;SDS011;34812;49.846;9.610;2023-04-24T00:12:03;2.60;;;2.40;;
16326;SDS011;34812;49.846;9.610;2023-04-24T00:13:05;3.70;;;2.70;;
16326;SDS011;34812;49.846;9.610;2023-04-24T00:14:06;4.73;;;2.40;;
16326;SDS011;34812;49.846;9.610;2023-04-24T00:15:08;2.70;;;2.50;;
16326;SDS011;34812;49.846;9.610;2023-04-24T00:16:10;3.30;;;2.30;;
16326;SDS011;34812;49.846;9.610;2023-04-24T00:17:11;3.73;;;2.50;;
16326;SDS011;34812;49.846;9.610;2023-04-24T00:18:13;2.57;;;2.37;;
16326;SDS011;34812;49.846;9.610;2023-04-24T00:19:13;5.00;;;2.70;;
16326;SDS011;34812;49.846;9.610;2023-04-24T00:20:15;3.47;;;2.67;;
16326;SDS011;34812;49.846;9.610;2023-04-24T00:21:16;2.97;;;2.30;;
16326;SDS011;34812;49.846;9.610;2023-04-24T00:22:20;2.77;;;2.20;;
16326;SDS011;34812;49.846;9.610;2023-04-24T00:23:21;2.20;;;2.00;;
16326;SDS011;34812;49.846;9.610;2023-04-24T00:24:22;3.90;;;2.37;;
16326;SDS011;34812;49.846;9.610;2023-04-24T00:25:23;2.60;;;2.23;;
16326;SDS011;34812;49.846;9.610;2023-04-24T00:26:25;3.00;;;2.40;;
16326;SDS011;34812;49.846;9.610;2023-04-24T00:27:26;2.20;;;2.10;;
16326;SDS011;34812;49.846;9.610;2023-04-24T00:28:27;3.53;;;2.27;;
16326;SDS011;34812;49.846;9.610;2023-04-24T00:29:28;2.43;;;2.23;;
16326;SDS011;34812;49.846;9.610;2023-04-24T00:30:30;2.30;;;2.20;;
16326;SDS011;34812;49.846;9.610;2023-04-24T00:31:31;2.60;;;2.17;;
16326;SDS011;34812;49.846;9.610;2023-04-24T00:32:34;2.43;;;2.20;;
16326;SDS011;34812;49.846;9.610;2023-04-24T00:33:36;3.10;;;2.03;;
16326;SDS011;34812;49.846;9.610;2023-04-24T00:34:37;5.33;;;2.30;;
16326;SDS011;34812;49.846;9.610;2023-04-24T00:35:39;2.23;;;2.13;;
16326;SDS011;34812;49.846;9.610;2023-04-24T00:36:40;3.97;;;2.20;;
16326;SDS011;34812;49.846;9.610;2023-04-24T00:37:43;3.80;;;2.27;;
16326;SDS011;34812;49.846;9.610;2023-04-24T00:38:44;3.03;;;2.43;;
16326;SDS011;34812;49.846;9.610;2023-04-24T00:39:46;3.67;;;2.30;;
16326;SDS011;34812;49.846;9.610;2023-04-24T00:40:47;2.70;;;2.50;;
16326;SDS011;34812;49.846;9.610;2023-04-24T00:41:50;2.60;;;2.40;;
16326;SDS011;34812;49.846;9.610;2023-04-24T00:42:51;3.30;;;2.53;;
16326;SDS011;34812;49.846;9.610;2023-04-24T00:43:53;3.47;;;2.80;;
16326;SDS011;34812;49.846;9.610;2023-04-24T00:44:54;3.87;;;2.77;;
16326;SDS011;34812;49.846;9.610;2023-04-24T00:45:56;3.23;;;2.93;;
16326;SDS011;34812;49.846;9.610;2023-04-24T00:46:59;3.23;;;3.03;;
16326;SDS011;34812;49.846;9.610;2023-04-24T00:48:02;4.67;;;3.17;;
16326;SDS011;34812;49.846;9.610;2023-04-24T00:49:04;4.07;;;3.50;;
16326;SDS011;34812;49.846;9.610;2023-04-24T00:50:06;5.23;;;3.23;;
16326;SDS011;34812;49.846;9.610;2023-04-24T00:51:08;4.23;;;3.50;;
16326;SDS011;34812;49.846;9.610;2023-04-24T00:52:10;5.20;;;3.70;;
16326;SDS011;34812;49.846;9.610;2023-04-24T00:53:13;5.60;;;3.33;;
16326;SDS011;34812;49.846;9.610;2023-04-24T00:54:15;2.97;;;2.47;;
16326;SDS011;34812;49.846;9.610;2023-04-24T00:55:17;2.43;;;2.23;;
16326;SDS011;34812;49.846;9.610;2023-04-24T00:56:18;3.77;;;2.20;;
16326;SDS011;34812;49.846;9.610;2023-04-24T00:57:20;1.90;;;1.73;;
16326;SDS011;34812;49.846;9.610;2023-04-24T00:58:23;2.23;;;1.90;;
16326;SDS011;34812;49.846;9.610;2023-04-24T00:59:24;3.67;;;2.20;;
16326;SDS011;34812;49.846;9.610;2023-04-24T01:00:26;3.27;;;1.90;;
16326;SDS011;34812;49.846;9.610;2023-04-24T01:01:27;2.63;;;1.70;;
16326;SDS011;34812;49.846;9.610;2023-04-24T01:02:30;2.47;;;1.93;;
16326;SDS011;34812;49.846;9.610;2023-04-24T01:03:34;2.73;;;1.73;;
16326;SDS011;34812;49.846;9.610;2023-04-24T01:04:37;3.10;;;2.10;;
16326;SDS011;34812;49.846;9.610;2023-04-24T01:05:39;1.97;;;1.70;;
16326;SDS011;34812;49.846;9.610;2023-04-24T01:06:41;2.80;;;1.90;;
16326;SDS011;34812;49.846;9.610;2023-04-24T01:07:44;1.70;;;1.60;;
16326;SDS011;34812;49.846;9.610;2023-04-24T01:08:50;1.70;;;1.60;;
16326;SDS011;34812;49.846;9.610;2023-04-24T01:09:51;2.30;;;1.70;;
16326;SDS011;34812;49.846;9.610;2023-04-24T01:10:52;2.30;;;2.00;;
16326;SDS011;34812;49.846;9.610;2023-04-24T01:11:54;4.47;;;2.00;;
16326;SDS011;34812;49.846;9.610;2023-04-24T01:12:56;1.90;;;1.80;;
16326;SDS011;34812;49.846;9.610;2023-04-24T01:13:58;3.40;;;1.97;;
16326;SDS011;34812;49.846;9.610;2023-04-24T01:15:00;1.93;;;1.73;;
16326;SDS011;34812;49.846;9.610;2023-04-24T01:16:01;1.90;;;1.80;;
16326;SDS011;34812;49.846;9.610;2023-04-24T01:17:03;2.03;;;1.87;;
16326;SDS011;34812;49.846;9.610;2023-04-24T01:18:04;1.80;;;1.70;;
16326;SDS011;34812;49.846;9.610;2023-04-24T01:19:06;1.80;;;1.70;;
16326;SDS011;34812;49.846;9.610;2023-04-24T01:20:07;3.23;;;1.80;;
16326;SDS011;34812;49.846;9.610;2023-04-24T01:21:10;2.20;;;2.07;;
16326;SDS011;34812;49.846;9.610;2023-04-24T01:22:15;2.03;;;1.77;;
16326;SDS011;34812;49.846;9.610;2023-04-24T01:23:17;2.37;;;1.63;;
16326;SDS011;34812;49.846;9.610;2023-04-24T01:24:18;2.43;;;2.23;;
16326;SDS011;34812;49.846;9.610;2023-04-24T01:25:20;2.47;;;1.70;;
16326;SDS011;34812;49.846;9.610;2023-04-24T01:26:22;2.10;;;1.90;;
16326;SDS011;34812;49.846;9.610;2023-04-24T01:27:26;1.70;;;1.60;;
16326;SDS011;34812;49.846;9.610;2023-04-24T01:28:27;3.73;;;2.10;;
16326;SDS011;34812;49.846;9.610;2023-04-24T01:29:29;1.83;;;1.73;;
16326;SDS011;34812;49.846;9.610;2023-04-24T01:30:30;2.10;;;1.90;;
16326;SDS011;34812;49.846;9.610;2023-04-24T01:31:32;3.63;;;2.00;;
16326;SDS011;34812;49.846;9.610;2023-04-24T01:32:34;2.00;;;1.90;;
16326;SDS011;34812;49.846;9.610;2023-04-24T01:33:36;2.00;;;1.70;;
16326;SDS011;34812;49.846;9.610;2023-04-24T01:34:37;2.23;;;2.00;;
16326;SDS011;34812;49.846;9.610;2023-04-24T01:35:39;2.10;;;1.90;;
16326;SDS011;34812;49.846;9.610;2023-04-24T01:36:40;2.60;;;1.97;;
16326;SDS011;34812;49.846;9.610;2023-04-24T01:37:45;2.90;;;1.97;;
16326;SDS011;34812;49.846;9.610;2023-04-24T01:38:46;2.40;;;1.70;;
16326;SDS011;34812;49.846;9.610;2023-04-24T01:39:48;5.03;;;2.07;;
16326;SDS011;34812;49.846;9.610;2023-04-24T01:40:49;2.90;;;1.90;;
16326;SDS011;34812;49.846;9.610;2023-04-24T01:41:51;2.10;;;1.90;;
16326;SDS011;34812;49.846;9.610;2023-04-24T01:42:53;3.03;;;2.10;;
16326;SDS011;34812;49.846;9.610;2023-04-24T01:43:56;1.97;;;1.77;;
16326;SDS011;34812;49.846;9.610;2023-04-24T01:44:58;2.70;;;2.00;;
16326;SDS011;34812;49.846;9.610;2023-04-24T01:46:00;1.90;;;1.80;;
16326;SDS011;34812;49.846;9.610;2023-04-24T01:47:01;2.10;;;1.90;;
16326;SDS011;34812;49.846;9.610;2023-04-24T01:48:04;2.30;;;2.00;;
16326;SDS011;34812;49.846;9.610;2023-04-24T01:49:05;2.77;;;2.33;;
16326;SDS011;34812;49.846;9.610;2023-04-24T01:50:07;2.60;;;1.93;;
16326;SDS011;34812;49.846;9.610;2023-04-24T01:51:09;2.10;;;1.93;;
16326;SDS011;34812;49.846;9.610;2023-04-24T01:52:11;2.20;;;2.00;;
16326;SDS011;34812;49.846;9.610;2023-04-24T01:53:13;2.70;;;1.97;;
16326;SDS011;34812;49.846;9.610;2023-04-24T01:54:16;2.13;;;1.80;;
16326;SDS011;34812;49.846;9.610;2023-04-24T01:55:16;1.93;;;1.83;;
16326;SDS011;34812;49.846;9.610;2023-04-24T01:56:19;1.67;;;1.57;;
16326;SDS011;34812;49.846;9.610;2023-04-24T01:57:21;1.83;;;1.73;;
16326;SDS011;34812;49.846;9.610;2023-04-24T01:58:23;3.03;;;1.90;;
16326;SDS011;34812;49.846;9.610;2023-04-24T01:59:24;3.73;;;2.10;;
16326;SDS011;34812;49.846;9.610;2023-04-24T02:00:28;1.93;;;1.60;;
16326;SDS011;34812;49.846;9.610;2023-04-24T02:01:32;1.70;;;1.60;;
16326;SDS011;34812;49.846;9.610;2023-04-24T02:02:36;5.13;;;1.80;;
16326;SDS011;34812;49.846;9.610;2023-04-24T02:03:37;2.20;;;2.00;;
16326;SDS011;34812;49.846;9.610;2023-04-24T02:04:39;4.07;;;1.77;;
16326;SDS011;34812;49.846;9.610;2023-04-24T02:05:39;3.43;;;1.60;;
16326;SDS011;34812;49.846;9.610;2023-04-24T02:06:44;1.57;;;1.47;;
16326;SDS011;34812;49.846;9.610;2023-04-24T02:07:45;1.80;;;1.70;;
16326;SDS011;34812;49.846;9.610;2023-04-24T02:08:48;1.87;;;1.60;;
16326;SDS011;34812;49.846;9.610;2023-04-24T02:09:49;1.93;;;1.63;;
16326;SDS011;34812;49.846;9.610;2023-04-24T02:10:51;2.33;;;1.70;;
16326;SDS011;34812;49.846;9.610;2023-04-24T02:11:52;1.70;;;1.60;;
16326;SDS011;34812;49.846;9.610;2023-04-24T02:12:53;3.43;;;1.90;;
16326;SDS011;34812;49.846;9.610;2023-04-24T02:13:58;2.23;;;1.73;;
16326;SDS011;34812;49.846;9.610;2023-04-24T02:15:00;2.97;;;1.70;;
16326;SDS011;34812;49.846;9.610;2023-04-24T02:16:00;3.77;;;2.10;;
16326;SDS011;34812;49.846;9.610;2023-04-24T02:17:03;5.13;;;1.97;;
16326;SDS011;34812;49.846;9.610;2023-04-24T02:18:05;4.00;;;2.00;;
16326;SDS011;34812;49.846;9.610;2023-04-24T02:19:06;2.90;;;1.90;;
16326;SDS011;34812;49.846;9.610;2023-04-24T02:20:07;2.97;;;2.30;;
16326;SDS011;34812;49.846;9.610;2023-04-24T02:21:09;3.03;;;2.60;;
16326;SDS011;34812;49.846;9.610;2023-04-24T02:22:10;3.77;;;2.73;;
16326;SDS011;34812;49.846;9.610;2023-04-24T02:23:12;4.37;;;2.50;;
16326;SDS011;34812;49.846;9.610;2023-04-24T02:24:15;5.57;;;4.30;;
16326;SDS011;34812;49.846;9.610;2023-04-24T02:25:16;5.60;;;3.80;;
16326;SDS011;34812;49.846;9.610;2023-04-24T02:26:17;3.70;;;3.20;;
16326;SDS011;34812;49.846;9.610;2023-04-24T02:27:19;6.60;;;4.00;;
16326;SDS011;34812;49.846;9.610;2023-04-24T02:28:20;4.50;;;2.60;;
16326;SDS011;34812;49.846;9.610;2023-04-24T02:29:23;2.67;;;2.13;;
16326;SDS011;34812;49.846;9.610;2023-04-24T02:30:24;3.43;;;2.60;;
16326;SDS011;34812;49.846;9.610;2023-04-24T02:31:26;2.93;;;2.13;;
16326;SDS011;34812;49.846;9.610;2023-04-24T02:32:27;5.47;;;2.60;;
16326;SDS011;34812;49.846;9.610;2023-04-24T02:33:30;6.20;;;4.33;;
16326;SDS011;34812;49.846;9.610;2023-04-24T02:34:31;3.83;;;3.37;;
16326;SDS011;34812;49.846;9.610;2023-04-24T02:35:33;3.80;;;3.17;;
16326;SDS011;34812;49.846;9.610;2023-04-24T02:36:34;3.77;;;2.13;;
16326;SDS011;34812;49.846;9.610;2023-04-24T02:37:36;3.50;;;2.37;;
16326;SDS011;34812;49.846;9.610;2023-04-24T02:38:37;7.27;;;4.20;;
16326;SDS011;34812;49.846;9.610;2023-04-24T02:39:40;7.43;;;3.70;;
16326;SDS011;34812;49.846;9.610;2023-04-24T02:40:41;2.53;;;2.33;;
16326;SDS011;34812;49.846;9.610;2023-04-24T02:41:44;3.87;;;2.50;;
16326;SDS011;34812;49.846;9.610;2023-04-24T02:42:44;2.77;;;1.87;;
16326;SDS011;34812;49.846;9.610;2023-04-24T02:43:46;2.73;;;2.00;;
16326;SDS011;34812;49.846;9.610;2023-04-24T02:44:47;4.17;;;1.80;;
16326;SDS011;34812;49.846;9.610;2023-04-24T02:45:50;3.23;;;2.13;;
16326;SDS011;34812;49.846;9.610;2023-04-24T02:46:51;2.07;;;1.87;;
16326;SDS011;34812;49.846;9.610;2023-04-24T02:47:53;1.87;;;1.77;;
16326;SDS011;34812;49.846;9.610;2023-04-24T02:48:54;2.33;;;2.03;;
16326;SDS011;34812;49.846;9.610;2023-04-24T02:49:55;2.00;;;1.80;;
16326;SDS011;34812;49.846;9.610;2023-04-24T02:50:56;2.63;;;2.10;;
16326;SDS011;34812;49.846;9.610;2023-04-24T02:51:58;3.27;;;1.80;;
16326;SDS011;34812;49.846;9.610;2023-04-24T02:52:59;2.97;;;1.70;;
16326;SDS011;34812;49.846;9.610;2023-04-24T02:54:01;1.80;;;1.50;;
16326;SDS011;34812;49.846;9.610;2023-04-24T02:55:03;3.37;;;1.90;;
16326;SDS011;34812;49.846;9.610;2023-04-24T02:56:06;2.23;;;1.70;;
16326;SDS011;34812;49.846;9.610;2023-04-24T02:57:06;1.73;;;1.60;;
16326;SDS011;34812;49.846;9.610;2023-04-24T02:58:08;2.17;;;1.87;;
16326;SDS011;34812;49.846;9.610;2023-04-24T02:59:10;2.20;;;1.93;;
16326;SDS011;34812;49.846;9.610;2023-04-24T03:00:12;3.30;;;2.00;;
16326;SDS011;34812;49.846;9.610;2023-04-24T03:01:13;3.27;;;1.60;;
16326;SDS011;34812;49.846;9.610;2023-04-24T03:02:15;1.60;;;1.50;;
16326;SDS011;34812;49.846;9.610;2023-04-24T03:03:16;2.50;;;1.60;;
16326;SDS011;34812;49.846;9.610;2023-04-24T03:04:18;2.97;;;1.90;;
16326;SDS011;34812;49.846;9.610;2023-04-24T03:05:20;3.10;;;1.90;;
16326;SDS011;34812;49.846;9.610;2023-04-24T03:06:22;3.67;;;1.90;;
16326;SDS011;34812;49.846;9.610;2023-04-24T03:07:23;4.70;;;1.63;;
16326;SDS011;34812;49.846;9.610;2023-04-24T03:08:24;5.10;;;1.87;;
16326;SDS011;34812;49.846;9.610;2023-04-24T03:09:25;1.80;;;1.70;;
16326;SDS011;34812;49.846;9.610;2023-04-24T03:10:28;2.27;;;1.60;;
16326;SDS011;34812;49.846;9.610;2023-04-24T03:11:29;1.77;;;1.67;;
16326;SDS011;34812;49.846;9.610;2023-04-24T03:12:31;1.90;;;1.80;;
16326;SDS011;34812;49.846;9.610;2023-04-24T03:13:32;2.50;;;1.60;;
16326;SDS011;34812;49.846;9.610;2023-04-24T03:14:33;1.90;;;1.50;;
16326;SDS011;34812;49.846;9.610;2023-04-24T03:15:34;2.20;;;1.50;;
16326;SDS011;34812;49.846;9.610;2023-04-24T03:16:36;2.90;;;1.60;;
16326;SDS011;34812;49.846;9.610;2023-04-24T03:17:37;4.10;;;2.03;;
16326;SDS011;34812;49.846;9.610;2023-04-24T03:18:39;2.10;;;1.70;;
16326;SDS011;34812;49.846;9.610;2023-04-24T03:19:41;3.17;;;2.20;;
16326;SDS011;34812;49.846;9.610;2023-04-24T03:20:45;1.90;;;1.50;;
16326;SDS011;34812;49.846;9.610;2023-04-24T03:21:47;2.50;;;1.63;;
16326;SDS011;34812;49.846;9.610;2023-04-24T03:22:49;2.33;;;1.87;;
16326;SDS011;34812;49.846;9.610;2023-04-24T03:23:51;3.90;;;1.73;;
16326;SDS011;34812;49.846;9.610;2023-04-24T03:24:53;2.37;;;1.90;;
16326;SDS011;34812;49.846;9.610;2023-04-24T03:25:56;2.03;;;1.70;;
16326;SDS011;34812;49.846;9.610;2023-04-24T03:26:58;1.97;;;1.60;;
16326;SDS011;34812;49.846;9.610;2023-04-24T03:28:19;2.90;;;1.50;;
16326;SDS011;34812;49.846;9.610;2023-04-24T03:29:33;3.83;;;1.83;;
16326;SDS011;34812;49.846;9.610;2023-04-24T03:30:35;1.50;;;1.40;;
16326;SDS011;34812;49.846;9.610;2023-04-24T03:31:38;2.00;;;1.50;;
16326;SDS011;34812;49.846;9.610;2023-04-24T03:32:39;2.80;;;1.80;;
16326;SDS011;34812;49.846;9.610;2023-04-24T03:33:42;5.33;;;1.93;;
16326;SDS011;34812;49.846;9.610;2023-04-24T03:34:43;2.50;;;1.80;;
16326;SDS011;34812;49.846;9.610;2023-04-24T03:35:46;2.87;;;1.60;;
16326;SDS011;34812;49.846;9.610;2023-04-24T03:36:47;2.27;;;1.70;;
16326;SDS011;34812;49.846;9.610;2023-04-24T03:37:49;3.20;;;1.60;;
16326;SDS011;34812;49.846;9.610;2023-04-24T03:39:19;1.60;;;1.50;;
16326;SDS011;34812;49.846;9.610;2023-04-24T03:40:26;6.63;;;1.80;;
16326;SDS011;34812;49.846;9.610;2023-04-24T03:41:31;2.47;;;1.57;;
16326;SDS011;34812;49.846;9.610;2023-04-24T03:42:42;2.83;;;1.67;;
16326;SDS011;34812;49.846;9.610;2023-04-24T03:43:43;1.93;;;1.33;;
16326;SDS011;34812;49.846;9.610;2023-04-24T03:44:45;3.40;;;1.63;;
16326;SDS011;34812;49.846;9.610;2023-04-24T03:45:46;1.77;;;1.67;;
16326;SDS011;34812;49.846;9.610;2023-04-24T03:46:48;2.13;;;1.70;;
16326;SDS011;34812;49.846;9.610;2023-04-24T03:47:50;3.87;;;1.97;;
16326;SDS011;34812;49.846;9.610;2023-04-24T03:48:51;2.30;;;2.00;;
16326;SDS011;34812;49.846;9.610;2023-04-24T03:49:55;1.90;;;1.53;;
16326;SDS011;34812;49.846;9.610;2023-04-24T03:50:57;4.07;;;2.10;;
16326;SDS011;34812;49.846;9.610;2023-04-24T03:51:58;1.83;;;1.67;;
16326;SDS011;34812;49.846;9.610;2023-04-24T03:53:01;3.80;;;1.70;;
16326;SDS011;34812;49.846;9.610;2023-04-24T03:54:13;2.10;;;1.80;;
16326;SDS011;34812;49.846;9.610;2023-04-24T03:55:15;1.93;;;1.70;;
16326;SDS011;34812;49.846;9.610;2023-04-24T03:56:19;2.80;;;1.83;;
16326;SDS011;34812;49.846;9.610;2023-04-24T03:57:23;2.00;;;1.73;;
16326;SDS011;34812;49.846;9.610;2023-04-24T03:58:37;2.47;;;1.83;;
16326;SDS011;34812;49.846;9.610;2023-04-24T03:59:39;2.60;;;1.57;;
16326;SDS011;34812;49.846;9.610;2023-04-24T04:00:45;2.43;;;1.80;;
16326;SDS011;34812;49.846;9.610;2023-04-24T04:02:10;3.47;;;1.80;;
16326;SDS011;34812;49.846;9.610;2023-04-24T04:03:12;4.43;;;1.87;;
16326;SDS011;34812;49.846;9.610;2023-04-24T04:04:14;2.00;;;1.80;;
16326;SDS011;34812;49.846;9.610;2023-04-24T04:05:17;2.17;;;1.70;;
16326;SDS011;34812;49.846;9.610;2023-04-24T04:06:18;2.00;;;1.80;;
16326;SDS011;34812;49.846;9.610;2023-04-24T04:07:22;4.60;;;2.10;;
16326;SDS011;34812;49.846;9.610;2023-04-24T04:08:23;4.33;;;2.30;;
16326;SDS011;34812;49.846;9.610;2023-04-24T04:09:25;8.33;;;2.90;;
16326;SDS011;34812;49.846;9.610;2023-04-24T04:10:25;3.47;;;1.90;;
16326;SDS011;34812;49.846;9.610;2023-04-24T04:11:27;4.70;;;2.20;;
16326;SDS011;34812;49.846;9.610;2023-04-24T04:12:29;4.30;;;2.60;;
16326;SDS011;34812;49.846;9.610;2023-04-24T04:13:32;3.80;;;2.13;;
16326;SDS011;34812;49.846;9.610;2023-04-24T04:14:33;2.43;;;2.10;;
16326;SDS011;34812;49.846;9.610;2023-04-24T04:15:35;6.07;;;2.40;;
16326;SDS011;34812;49.846;9.610;2023-04-24T04:16:35;3.13;;;2.13;;
16326;SDS011;34812;49.846;9.610;2023-04-24T04:17:38;4.33;;;2.27;;
16326;SDS011;34812;49.846;9.610;2023-04-24T04:18:41;2.30;;;2.10;;
16326;SDS011;34812;49.846;9.610;2023-04-24T04:19:43;2.40;;;2.20;;
16326;SDS011;34812;49.846;9.610;2023-04-24T04:20:44;4.43;;;2.30;;
16326;SDS011;34812;49.846;9.610;2023-04-24T04:21:47;3.63;;;1.70;;
16326;SDS011;34812;49.846;9.610;2023-04-24T04:23:00;6.00;;;2.43;;
16326;SDS011;34812;49.846;9.610;2023-04-24T04:24:13;2.90;;;1.80;;
16326;SDS011;34812;49.846;9.610;2023-04-24T04:25:18;2.63;;;1.80;;
16326;SDS011;34812;49.846;9.610;2023-04-24T04:26:19;2.33;;;1.90;;
16326;SDS011;34812;49.846;9.610;2023-04-24T04:27:40;4.17;;;2.10;;
16326;SDS011;34812;49.846;9.610;2023-04-24T04:28:44;3.00;;;1.50;;
16326;SDS011;34812;49.846;9.610;2023-04-24T04:29:46;1.87;;;1.77;;
16326;SDS011;34812;49.846;9.610;2023-04-24T04:30:49;2.07;;;1.87;;
16326;SDS011;34812;49.846;9.610;2023-04-24T04:31:54;2.27;;;2.07;;
16326;SDS011;34812;49.846;9.610;2023-04-24T04:32:56;1.80;;;1.70;;
16326;SDS011;34812;49.846;9.610;2023-04-24T04:33:57;3.73;;;2.07;;
16326;SDS011;34812;49.846;9.610;2023-04-24T04:34:59;2.17;;;1.63;;
16326;SDS011;34812;49.846;9.610;2023-04-24T04:36:04;2.00;;;1.67;;
16326;SDS011;34812;49.846;9.610;2023-04-24T04:37:06;1.70;;;1.57;;
16326;SDS011;34812;49.846;9.610;2023-04-24T04:38:18;2.57;;;1.83;;
16326;SDS011;34812;49.846;9.610;2023-04-24T04:39:31;2.20;;;2.00;;
16326;SDS011;34812;49.846;9.610;2023-04-24T04:40:36;4.00;;;2.07;;
16326;SDS011;34812;49.846;9.610;2023-04-24T04:41:39;2.00;;;1.57;;
16326;SDS011;34812;49.846;9.610;2023-04-24T04:42:44;2.90;;;1.77;;
16326;SDS011;34812;49.846;9.610;2023-04-24T04:43:48;1.93;;;1.70;;
16326;SDS011;34812;49.846;9.610;2023-04-24T04:44:55;3.60;;;1.77;;
16326;SDS011;34812;49.846;9.610;2023-04-24T04:46:03;6.47;;;2.10;;
16326;SDS011;34812;49.846;9.610;2023-04-24T04:47:19;2.67;;;1.90;;
16326;SDS011;34812;49.846;9.610;2023-04-24T04:48:22;1.97;;;1.80;;
16326;SDS011;34812;49.846;9.610;2023-04-24T04:49:24;2.87;;;1.90;;
16326;SDS011;34812;49.846;9.610;2023-04-24T04:50:28;2.73;;;1.83;;
16326;SDS011;34812;49.846;9.610;2023-04-24T04:51:35;2.53;;;1.90;;
16326;SDS011;34812;49.846;9.610;2023-04-24T04:52:36;4.67;;;1.80;;
16326;SDS011;34812;49.846;9.610;2023-04-24T04:53:48;3.97;;;2.03;;
16326;SDS011;34812;49.846;9.610;2023-04-24T04:54:49;2.93;;;1.77;;
16326;SDS011;34812;49.846;9.610;2023-04-24T04:55:52;1.83;;;1.73;;
16326;SDS011;34812;49.846;9.610;2023-04-24T04:56:54;4.10;;;2.10;;
16326;SDS011;34812;49.846;9.610;2023-04-24T04:57:58;2.50;;;1.83;;
16326;SDS011;34812;49.846;9.610;2023-04-24T04:59:00;3.97;;;2.00;;
16326;SDS011;34812;49.846;9.610;2023-04-24T05:00:02;2.27;;;2.07;;
16326;SDS011;34812;49.846;9.610;2023-04-24T05:01:15;2.03;;;1.80;;
16326;SDS011;34812;49.846;9.610;2023-04-24T05:02:20;2.20;;;2.00;;
16326;SDS011;34812;49.846;9.610;2023-04-24T05:03:20;1.93;;;1.70;;
16326;SDS011;34812;49.846;9.610;2023-04-24T05:04:29;2.97;;;2.30;;
16326;SDS011;34812;49.846;9.610;2023-04-24T05:05:30;3.43;;;1.70;;
16326;SDS011;34812;49.846;9.610;2023-04-24T05:06:32;5.17;;;1.80;;
16326;SDS011;34812;49.846;9.610;2023-04-24T05:07:33;2.20;;;1.80;;
16326;SDS011;34812;49.846;9.610;2023-04-24T05:08:35;1.87;;;1.70;;
16326;SDS011;34812;49.846;9.610;2023-04-24T05:09:37;1.87;;;1.63;;
16326;SDS011;34812;49.846;9.610;2023-04-24T05:10:41;4.87;;;1.90;;
16326;SDS011;34812;49.846;9.610;2023-04-24T05:11:42;3.83;;;1.90;;
16326;SDS011;34812;49.846;9.610;2023-04-24T05:12:44;2.57;;;1.70;;
16326;SDS011;34812;49.846;9.610;2023-04-24T05:13:46;4.50;;;2.50;;
16326;SDS011;34812;49.846;9.610;2023-04-24T05:14:53;2.70;;;1.70;;
16326;SDS011;34812;49.846;9.610;2023-04-24T05:15:55;2.63;;;1.97;;
16326;SDS011;34812;49.846;9.610;2023-04-24T05:16:56;3.07;;;1.73;;
16326;SDS011;34812;49.846;9.610;2023-04-24T05:17:59;4.73;;;1.77;;
16326;SDS011;34812;49.846;9.610;2023-04-24T05:19:01;1.97;;;1.60;;
16326;SDS011;34812;49.846;9.610;2023-04-24T05:20:08;3.00;;;1.83;;
16326;SDS011;34812;49.846;9.610;2023-04-24T05:21:10;2.90;;;2.00;;
16326;SDS011;34812;49.846;9.610;2023-04-24T05:22:14;2.40;;;2.20;;
16326;SDS011;34812;49.846;9.610;2023-04-24T05:23:23;5.07;;;2.10;;
16326;SDS011;34812;49.846;9.610;2023-04-24T05:24:26;3.30;;;2.10;;
16326;SDS011;34812;49.846;9.610;2023-04-24T05:25:47;2.17;;;1.97;;
16326;SDS011;34812;49.846;9.610;2023-04-24T05:26:48;2.90;;;1.70;;
16326;SDS011;34812;49.846;9.610;2023-04-24T05:27:53;3.50;;;1.90;;
16326;SDS011;34812;49.846;9.610;2023-04-24T05:28:58;4.60;;;2.23;;
16326;SDS011;34812;49.846;9.610;2023-04-24T05:29:59;2.70;;;2.00;;
16326;SDS011;34812;49.846;9.610;2023-04-24T05:31:01;3.00;;;2.10;;
16326;SDS011;34812;49.846;9.610;2023-04-24T05:32:02;2.10;;;2.00;;
16326;SDS011;34812;49.846;9.610;2023-04-24T05:33:05;1.97;;;1.87;;
16326;SDS011;34812;49.846;9.610;2023-04-24T05:34:08;1.80;;;1.70;;
16326;SDS011;34812;49.846;9.610;2023-04-24T05:35:14;1.73;;;1.63;;
16326;SDS011;34812;49.846;9.610;2023-04-24T05:36:15;2.93;;;2.07;;
16326;SDS011;34812;49.846;9.610;2023-04-24T05:37:16;1.90;;;1.80;;
16326;SDS011;34812;49.846;9.610;2023-04-24T05:38:17;1.87;;;1.77;;
16326;SDS011;34812;49.846;9.610;2023-04-24T05:39:19;3.33;;;1.87;;
16326;SDS011;34812;49.846;9.610;2023-04-24T05:40:20;2.10;;;2.00;;
16326;SDS011;34812;49.846;9.610;2023-04-24T05:41:22;3.00;;;2.10;;
16326;SDS011;34812;49.846;9.610;2023-04-24T05:42:23;2.50;;;2.30;;
16326;SDS011;34812;49.846;9.610;2023-04-24T05:43:25;2.73;;;2.57;;
16326;SDS011;34812;49.846;9.610;2023-04-24T05:44:27;2.83;;;2.33;;
16326;SDS011;34812;49.846;9.610;2023-04-24T05:45:29;4.60;;;4.10;;
16326;SDS011;34812;49.846;9.610;2023-04-24T05:46:29;2.60;;;2.40;;
16326;SDS011;34812;49.846;9.610;2023-04-24T05:47:31;5.20;;;4.70;;
16326;SDS011;34812;49.846;9.610;2023-04-24T05:48:33;5.60;;;4.33;;
16326;SDS011;34812;49.846;9.610;2023-04-24T05:49:37;4.67;;;3.00;;
16326;SDS011;34812;49.846;9.610;2023-04-24T05:50:38;6.63;;;5.47;;
16326;SDS011;34812;49.846;9.610;2023-04-24T05:51:40;4.90;;;4.10;;
16326;SDS011;34812;49.846;9.610;2023-04-24T05:52:42;9.07;;;5.97;;
16326;SDS011;34812;49.846;9.610;2023-04-24T05:53:55;9.57;;;7.50;;
16326;SDS011;34812;49.846;9.610;2023-04-24T05:54:58;5.87;;;5.27;;
16326;SDS011;34812;49.846;9.610;2023-04-24T05:56:04;4.57;;;3.20;;
16326;SDS011;34812;49.846;9.610;2023-04-24T05:57:06;3.10;;;2.70;;
16326;SDS011;34812;49.846;9.610;2023-04-24T05:58:22;3.77;;;3.47;;
16326;SDS011;34812;49.846;9.610;2023-04-24T05:59:24;6.17;;;5.13;;
16326;SDS011;34812;49.846;9.610;2023-04-24T06:00:27;4.33;;;3.93;;
16326;SDS011;34812;49.846;9.610;2023-04-24T06:01:35;14.53;;;8.80;;
16326;SDS011;34812;49.846;9.610;2023-04-24T06:02:47;10.70;;;7.20;;
16326;SDS011;34812;49.846;9.610;2023-04-24T06:03:49;9.40;;;6.97;;
16326;SDS011;34812;49.846;9.610;2023-04-24T06:04:50;3.23;;;2.93;;
16326;SDS011;34812;49.846;9.610;2023-04-24T06:05:52;7.30;;;4.47;;
16326;SDS011;34812;49.846;9.610;2023-04-24T06:06:55;11.83;;;9.40;;
16326;SDS011;34812;49.846;9.610;2023-04-24T06:07:57;3.80;;;3.50;;
16326;SDS011;34812;49.846;9.610;2023-04-24T06:09:05;10.27;;;8.57;;
16326;SDS011;34812;49.846;9.610;2023-04-24T06:10:07;8.80;;;7.87;;
16326;SDS011;34812;49.846;9.610;2023-04-24T06:11:14;10.17;;;7.80;;
16326;SDS011;34812;49.846;9.610;2023-04-24T06:12:15;3.60;;;3.30;;
16326;SDS011;34812;49.846;9.610;2023-04-24T06:13:43;5.27;;;4.27;;
16326;SDS011;34812;49.846;9.610;2023-04-24T06:15:06;5.97;;;5.37;;
16326;SDS011;34812;49.846;9.610;2023-04-24T06:16:29;8.63;;;5.70;;
16326;SDS011;34812;49.846;9.610;2023-04-24T06:17:37;7.00;;;6.17;;
16326;SDS011;34812;49.846;9.610;2023-04-24T06:18:38;6.97;;;5.70;;
16326;SDS011;34812;49.846;9.610;2023-04-24T06:19:40;4.47;;;4.03;;
16326;SDS011;34812;49.846;9.610;2023-04-24T06:20:41;3.20;;;3.00;;